Tipton, Missouri
Current Conditions -  °F | °C
As of 2:35 AM on Friday 24 Oct 2014 (Local Time) from KVER Reporting Station
Moderate Fog Moderate Fog  
Wind Chill: 55°   Ceiling: 300
Heat Index: 55°   Visibility: 0.25mi
Dew Point: 55°   Wind: 0mph
Humidity: 100%   Direction: NA
Pressure: 30.08"   Gusts: NA
Location:  38.66°N, 92.78°W
Report Text: KVER 240735Z AUTO 00000KT 1/4SM FG OVC003 13/13 A3008 RMK AO2 T01300131
Loading
Personal Weather Stations






























Interactive Weather Map
Tropical Storm Tracking
New forecast layout! Learn more

10-Day Weather Forecast

Advertisements
Track Severe Weather on mobile